Home   Weather   Portugal   Coimbra   Past weeks
Flag for Portugal

Past Weather in Coimbra, Portugal — Yesterday and Last 2 Weeks

Currently: 68 °F. Fog. (Weather station: Porto / Pedras Rubras, Portugal). See more current weather

Past Weather in Coimbra — Graph

°F

Coimbra Temperature Yesterday

Maximum temperature yesterday: 73 °F (at 5:00 pm)
Minimum temperature yesterday: 64 °F (at 12:30 am)
Average temperature yesterday: 68 °F

High & Low Weather Summary for the Past Weeks

 TemperatureHumidityPressure
High84 °F (Sep 12, 3:00 pm)100% (Sep 1, 9:00 pm)30.12 "Hg (Sep 1, 9:00 pm)
Low57 °F (Sep 5, 3:30 am)44% (Sep 5, 7:00 pm)29.77 "Hg (Sep 13, 4:30 pm)
Average68 °F86%29.97 "Hg
* Reported Sep 1 11:00 am — Sep 16 11:30 am, Coimbra. Weather by CustomWeather, © 2021

Note: Actual official high and low records may vary slightly from our data, if they occured in-between our weather recording intervals... More about our weather records

Coimbra Weather History for the Previous 24 Hours

Scroll right to see more
 ConditionsComfort  
Time TempWeatherWind HumidityBarometerVisibility
11:30 am
Thu, Sep 16
68 °FMore clouds than sun.1 mph88%30.12 "Hg4 mi
11:00 am66 °FMore clouds than sun.3 mph94%30.12 "Hg4 mi
10:30 am64 °FFog.5 mph100%30.12 "Hg3 mi
9:30 am64 °FFog.5 mph100%30.09 "Hg2 mi
9:00 am64 °FFog.5 mph100%30.09 "Hg2 mi
8:30 am61 °FFog.3 mph100%30.09 "Hg3 mi
8:00 am61 °FFog.3 mph100%30.09 "Hg4 mi
7:30 am59 °FRain. Cloudy.3 mph100%30.07 "Hg1 mi
7:00 am59 °FPassing clouds.2 mph100%30.07 "Hg2 mi
6:30 am59 °FPassing clouds.5 mph100%30.07 "Hg1 mi
6:00 am59 °FPassing clouds.3 mph100%30.07 "HgN/A
5:30 am59 °FClear.3 mph100%30.07 "Hg10 mi
5:00 am61 °FClear.1 mph100%30.04 "Hg10 mi
4:30 am61 °FClear.6 mph100%30.07 "Hg10 mi
4:00 am59 °FClear.2 mph100%30.07 "Hg10 mi
3:30 am61 °FClear.No wind100%30.07 "Hg10 mi
3:00 am61 °FClear.2 mph94%30.07 "Hg10 mi
2:30 am64 °FClear.2 mph94%30.07 "Hg10 mi
2:00 am63 °FClear.2 mph100%30.07 "Hg10 mi
1:30 am63 °FClear.No wind100%30.07 "Hg10 mi
1:00 am64 °FClear.No wind100%30.07 "Hg10 mi
12:30 am64 °FClear.2 mph100%30.07 "Hg10 mi
12:00 am64 °FClear.No wind100%30.07 "Hg10 mi
11:30 pm
Wed, Sep 15
66 °FClear.No wind94%30.04 "Hg10 mi
11:00 pm66 °FClear.No wind94%30.04 "Hg10 mi
10:30 pm66 °FClear.No wind94%30.04 "Hg10 mi
10:00 pm66 °FClear.2 mph100%30.04 "Hg10 mi
9:30 pm68 °FClear.3 mph94%30.04 "Hg10 mi
9:00 pm68 °FPassing clouds.5 mph94%30.04 "HgN/A
8:30 pm68 °FPassing clouds.5 mph94%30.01 "HgN/A
8:00 pm70 °FPassing clouds.5 mph88%30.01 "HgN/A
7:30 pm70 °FPassing clouds.5 mph88%30.01 "HgN/A
7:00 pm72 °FPassing clouds.7 mph83%30.01 "HgN/A
6:30 pm73 °FPassing clouds.7 mph78%30.01 "HgN/A
6:00 pm73 °FPassing clouds.9 mph78%30.01 "HgN/A
5:30 pm73 °FPassing clouds.9 mph78%29.98 "HgN/A
5:00 pm73 °FPassing clouds.7 mph74%29.98 "HgN/A
4:30 pm72 °FPassing clouds.8 mph83%30.01 "HgN/A
4:00 pm72 °FScattered clouds.9 mph83%29.98 "HgN/A
3:30 pm72 °FScattered clouds.8 mph78%30.01 "HgN/A
3:00 pm70 °FBroken clouds.8 mph88%30.01 "HgN/A
2:30 pm70 °FBroken clouds.8 mph88%30.01 "HgN/A
2:00 pm70 °FPartly sunny.8 mph88%30.01 "HgN/A
1:30 pm70 °FBroken clouds.6 mph88%30.01 "HgN/A
1:00 pm70 °FBroken clouds.6 mph88%29.98 "HgN/A
12:30 pm72 °FBroken clouds.7 mph83%29.98 "HgN/A
12:00 pm72 °FPartly sunny.2 mph83%29.98 "HgN/A
Weather by CustomWeather, © 2021

See weather overview